Thursday, June 21, 2018, 12:03 PM EDT
Back to Local

KPVC, Provincetown, Provincetown Municipal Airport

Location: Provincetown, MA, United States Lat: 42.067
Local Time: 12:03 PM EDT (16:03 GMT) Lon: -70.217
Time Zone: US/Eastern Elev: 6 ft

Show me the last for .
Show Coded

Time T Td Feel RH Dir Speed Gust Alt SLP Vis Weather Sky Remarks
2018-06-21 10:56 72 61 76 68 220° 13 - 29.79 29.79 10 CLR None
2018-06-21 09:56 71 62 76 73 210° 12 - 29.79 29.78 10 CLR None
2018-06-21 08:56 68 63 - 83 240° 9 - 29.79 29.78 10 CLR None
2018-06-21 07:56 66 63 - 89 220° 9 - 29.78 29.77 10 CLR 6-hr Min Temp (8am): 59.0°F
6-hr Max Temp (8am): 66.0°F
2018-06-21 06:56 64 63 - 96 220° 8 - 29.77 29.76 10 CLR None
2018-06-21 05:56 62 61 - 96 210° 7 - 29.76 29.76 10 CLR None
2018-06-21 04:56 60 59 - 96 230° 6 - 29.75 29.75 10 CLR None
2018-06-21 03:56 61 60 - 96 210° 5 - 29.74 29.74 10 CLR None
2018-06-21 02:56 62 62 - 100 220° 6 - 29.75 29.75 10 CLR None
2018-06-21 00:56 63 62 - 96 220° 8 - 29.77 29.77 10 CLR 24-hr Min Temp (1am): 50.0°F
24-hr Max Temp (1am): 75.9°F
2018-06-20 23:56 64 62 - 93 220° 10 - 29.78 29.77 10 CLR None
2018-06-20 22:56 64 62 - 93 220° 12 - 29.79 29.78 10 CLR None
2018-06-20 21:56 64 62 - 93 200° 9 - 29.80 29.79 10 CLR None
2018-06-20 20:56 65 62 - 90 210° 14 - 29.79 29.78 10 CLR None
2018-06-20 19:56 65 62 - 90 210° 14 - 29.77 29.77 10 CLR 6-hr Min Temp (8pm): 64.9°F
6-hr Max Temp (8pm): 75.9°F
2018-06-20 18:56 67 61 - 81 210° 13 - 29.78 29.77 10 CLR None
2018-06-20 17:56 68 61 - 78 220° 17 22 29.79 29.79 10 CLR None
2018-06-20 17:37 70 61 - 73 210° 17 24 29.79 - 10 FEW001 None
2018-06-20 16:56 69 61 - 75 210° 15 - 29.80 29.80 10 CLR None
2018-06-20 15:56 70 61 - 73 220° 17 22 29.82 29.81 10 CLR None
2018-06-20 14:56 72 59 76 63 210° 16 25 29.82 29.82 10 CLR None
2018-06-20 14:35 73 59 77 60 210° 20 25 29.83 - 10 FEW001 None
2018-06-20 13:56 75 59 78 57 210° 23 26 29.83 29.83 10 CLR 6-hr Min Temp (2pm): 64.9°F
6-hr Max Temp (2pm): 75.9°F
2018-06-20 12:56 74 59 77 59 190° 13 - 29.85 29.85 10 FEW055 None

Support USWX by starting your Amazon purchase here.